Charleston AFB, South Carolina
Current Conditions -  °F | °C
As of 7:56 AM on Sunday 23 Nov 2014 (Local Time) from KCHS Reporting Station
Moderate Rain Moderate Rain  
Wind Chill: 58°   Ceiling: 2700
Heat Index: 58°   Visibility: 5mi
Dew Point: 56°   Wind: 12mph
Humidity: 93%   Direction: 50°NE
Pressure: 30.15"   Gusts: NA
Location:  32.89°N, 80.07°W
Report Text: KCHS 231256Z 05010KT 5SM RA BR OVC027 14/13 A3015 RMK AO2 SLP210 P0015 T01440133 $
Loading
Personal Weather Stations






























Interactive Weather Map New forecast layout! Learn more

10-Day Weather Forecast

Advertisements
Track Severe Weather on mobile